createdAt,value
2022-11-27T00:03:12.987Z,16.937
2022-11-27T00:06:53.923Z,16.875
2022-11-27T00:10:34.559Z,16.875
2022-11-27T00:14:14.640Z,16.875
2022-11-27T00:18:01.050Z,16.812
2022-11-27T00:21:41.243Z,16.812
2022-11-27T00:25:21.844Z,16.812
2022-11-27T00:29:09.298Z,16.75
2022-11-27T00:32:49.815Z,16.75
2022-11-27T00:36:30.657Z,16.75
2022-11-27T00:40:24.275Z,16.687
2022-11-27T00:44:15.701Z,16.687
2022-11-27T00:48:02.994Z,16.625
2022-11-27T00:51:43.463Z,16.625
2022-11-27T00:55:24.370Z,16.562
2022-11-27T00:59:04.211Z,16.562
2022-11-27T01:03:07.447Z,16.562
2022-11-27T01:06:47.637Z,16.5
2022-11-27T01:10:28.439Z,16.5
2022-11-27T01:14:08.740Z,16.5
2022-11-27T01:17:50.234Z,16.437
2022-11-27T01:21:29.894Z,16.437
2022-11-27T01:25:10.770Z,16.437
2022-11-27T01:28:55.905Z,16.437
2022-11-27T01:32:36.704Z,16.375
2022-11-27T01:36:17.864Z,16.375
2022-11-27T01:39:57.760Z,16.312
2022-11-27T01:43:37.986Z,16.312
2022-11-27T01:47:19.667Z,16.312
2022-11-27T01:50:59.475Z,16.312
2022-11-27T01:54:39.442Z,16.25
2022-11-27T01:58:19.944Z,16.25
2022-11-27T02:03:06.531Z,16.25
2022-11-27T02:06:46.644Z,16.187
2022-11-27T02:10:26.921Z,16.187
2022-11-27T02:14:06.759Z,16.187
2022-11-27T02:17:53.022Z,16.187
2022-11-27T02:21:33.180Z,16.125
2022-11-27T02:25:13.471Z,16.125
2022-11-27T02:28:59.522Z,16.125
2022-11-27T02:32:40.080Z,16.125
2022-11-27T02:36:20.887Z,16.062
2022-11-27T02:40:00.884Z,16.062
2022-11-27T02:43:41.124Z,16.062
2022-11-27T02:47:22.434Z,16.062
2022-11-27T02:51:02.495Z,16.0
2022-11-27T02:54:42.706Z,16.0
2022-11-27T02:58:22.668Z,16.0
2022-11-27T03:03:06.740Z,15.937
2022-11-27T03:06:47.079Z,15.937
2022-11-27T03:10:27.957Z,15.937
2022-11-27T03:14:08.089Z,15.937
2022-11-27T03:17:48.450Z,15.937
2022-11-27T03:21:28.616Z,15.875
2022-11-27T03:25:09.189Z,15.875
2022-11-27T03:28:49.391Z,15.875
2022-11-27T03:32:29.844Z,15.875
2022-11-27T03:36:09.901Z,15.875
2022-11-27T03:39:49.940Z,15.875
2022-11-27T03:43:29.930Z,15.812
2022-11-27T03:47:10.906Z,15.812
2022-11-27T03:50:50.889Z,15.812
2022-11-27T03:54:30.908Z,15.812
2022-11-27T03:58:11.707Z,15.812
2022-11-27T04:03:06.966Z,15.75
2022-11-27T04:06:47.338Z,15.75
2022-11-27T04:10:27.661Z,15.75
2022-11-27T04:14:07.812Z,15.75
2022-11-27T04:17:48.819Z,15.687
2022-11-27T04:21:28.668Z,15.687
2022-11-27T04:25:08.829Z,15.687
2022-11-27T04:28:48.917Z,15.687
2022-11-27T04:32:29.603Z,15.687
2022-11-27T04:36:10.118Z,15.687
2022-11-27T04:39:49.909Z,15.625
2022-11-27T04:43:29.547Z,15.625
2022-11-27T04:47:10.959Z,15.625
2022-11-27T04:50:50.999Z,15.625
2022-11-27T04:54:30.946Z,15.625
2022-11-27T04:58:11.116Z,15.562
2022-11-27T05:03:07.803Z,15.562
2022-11-27T05:08:35.454Z,15.562
2022-11-27T05:12:15.610Z,15.562
2022-11-27T05:15:55.849Z,15.562
2022-11-27T05:19:36.853Z,15.562
2022-11-27T05:23:16.808Z,15.5
2022-11-27T05:26:56.717Z,15.5
2022-11-27T05:30:36.945Z,15.5
2022-11-27T05:34:17.512Z,15.5
2022-11-27T05:38:02.732Z,15.437
2022-11-27T05:41:42.846Z,15.437
2022-11-27T05:45:29.799Z,15.375
2022-11-27T05:49:10.393Z,15.375
2022-11-27T05:52:50.482Z,15.375
2022-11-27T05:56:31.042Z,15.375
2022-11-27T06:03:14.507Z,15.312
2022-11-27T06:06:54.818Z,15.312
2022-11-27T06:10:41.904Z,15.312
2022-11-27T06:14:21.854Z,15.312
2022-11-27T06:18:02.683Z,15.25
2022-11-27T06:21:42.764Z,15.25
2022-11-27T06:25:23.199Z,15.25
2022-11-27T06:29:03.199Z,15.25
2022-11-27T06:32:51.265Z,15.25
2022-11-27T06:36:31.622Z,15.25
2022-11-27T06:40:11.547Z,15.25
2022-11-27T06:43:51.916Z,15.25
2022-11-27T06:47:32.977Z,15.187
2022-11-27T06:51:13.024Z,15.187
2022-11-27T06:54:53.227Z,15.187
2022-11-27T06:58:33.297Z,15.125
2022-11-27T07:03:06.671Z,15.125
2022-11-27T07:06:46.689Z,15.125
2022-11-27T07:10:32.505Z,15.125
2022-11-27T07:14:12.804Z,15.125
2022-11-27T07:17:59.071Z,15.062
2022-11-27T07:21:45.045Z,15.062
2022-11-27T07:25:25.362Z,15.062
2022-11-27T07:29:07.970Z,15.062
2022-11-27T07:32:48.440Z,15.062
2022-11-27T07:36:28.651Z,15.062
2022-11-27T07:40:47.084Z,15.062
2022-11-27T07:45:04.334Z,15.0
2022-11-27T07:48:45.375Z,15.0
2022-11-27T07:52:25.368Z,15.0
2022-11-27T07:56:11.511Z,15.0
2022-11-27T07:59:51.492Z,15.0
2022-11-27T08:03:06.779Z,15.0
2022-11-27T08:06:52.933Z,15.0
2022-11-27T08:10:33.564Z,15.0
2022-11-27T08:14:13.671Z,14.937
2022-11-27T08:17:54.446Z,14.937
2022-11-27T08:21:34.793Z,14.937
2022-11-27T08:25:15.432Z,15.0
2022-11-27T08:28:55.778Z,15.062
2022-11-27T08:32:36.424Z,15.125
2022-11-27T08:36:18.580Z,15.187
2022-11-27T08:39:58.721Z,15.187
2022-11-27T08:43:38.543Z,15.187
2022-11-27T08:47:19.580Z,15.187
2022-11-27T08:51:04.983Z,15.187
2022-11-27T08:54:45.334Z,15.187
2022-11-27T08:58:31.881Z,15.187
2022-11-27T09:03:12.364Z,15.125
2022-11-27T09:06:57.974Z,15.125
2022-11-27T09:10:39.275Z,15.125
2022-11-27T09:14:23.833Z,15.125
2022-11-27T09:18:04.594Z,15.062
2022-11-27T09:21:44.650Z,15.062
2022-11-27T09:25:25.211Z,15.062
2022-11-27T09:29:09.502Z,15.062
2022-11-27T09:32:50.734Z,15.0
2022-11-27T09:36:31.525Z,15.0
2022-11-27T09:40:11.676Z,15.0
2022-11-27T09:43:57.360Z,14.937
2022-11-27T09:47:41.473Z,14.937
2022-11-27T09:51:22.096Z,15.0
2022-11-27T09:55:02.620Z,15.062
2022-11-27T09:58:42.739Z,15.062
2022-11-27T10:03:27.478Z,15.125
2022-11-27T10:07:47.111Z,15.125
2022-11-27T10:11:35.494Z,15.125
2022-11-27T10:15:15.789Z,15.062
2022-11-27T10:18:56.917Z,15.062
2022-11-27T10:22:41.854Z,15.062
2022-11-27T10:26:22.616Z,15.062
2022-11-27T10:30:09.435Z,15.062
2022-11-27T10:34:31.009Z,15.062
2022-11-27T10:38:11.684Z,15.0
2022-11-27T10:42:26.465Z,15.0
2022-11-27T10:46:07.707Z,15.0
2022-11-27T10:49:47.974Z,15.0
2022-11-27T10:53:35.335Z,14.937
2022-11-27T10:57:15.888Z,15.0
2022-11-27T11:03:07.455Z,15.0
2022-11-27T11:08:11.917Z,15.062
2022-11-27T11:11:55.780Z,15.062
2022-11-27T11:15:36.221Z,15.062
2022-11-27T11:19:29.428Z,15.062
2022-11-27T11:23:09.596Z,15.062
2022-11-27T11:26:49.767Z,15.062
2022-11-27T11:30:31.382Z,15.0
2022-11-27T11:34:12.378Z,15.0
2022-11-27T11:37:55.781Z,15.0
2022-11-27T11:41:41.103Z,15.0
2022-11-27T11:45:21.641Z,14.937
2022-11-27T11:49:07.989Z,15.0
2022-11-27T11:52:53.040Z,15.125
2022-11-27T11:56:34.068Z,15.187
2022-11-27T12:03:59.507Z,15.25
2022-11-27T12:07:40.455Z,15.25
2022-11-27T12:11:26.902Z,15.25
2022-11-27T12:15:13.713Z,15.312
2022-11-27T12:18:54.880Z,15.437
2022-11-27T12:22:34.982Z,15.75
2022-11-27T12:26:15.725Z,16.125
2022-11-27T12:29:55.877Z,16.437
2022-11-27T12:33:36.555Z,16.812
2022-11-27T12:37:17.139Z,17.187
2022-11-27T12:40:57.362Z,17.437
2022-11-27T12:44:37.507Z,17.75
2022-11-27T12:48:23.379Z,17.937
2022-11-27T12:52:03.463Z,18.187
2022-11-27T12:55:50.929Z,18.375
2022-11-27T12:59:31.046Z,18.5
2022-11-27T13:03:13.880Z,18.437
2022-11-27T13:06:54.437Z,18.187
2022-11-27T13:10:41.090Z,18.0
2022-11-27T13:14:21.270Z,17.812
2022-11-27T13:18:02.176Z,17.812
2022-11-27T13:21:42.514Z,17.937
2022-11-27T13:25:23.001Z,18.062
2022-11-27T13:29:09.407Z,18.125
2022-11-27T13:32:50.486Z,18.062
2022-11-27T13:36:35.867Z,18.0
2022-11-27T13:40:16.395Z,17.75
2022-11-27T13:43:56.529Z,17.75
2022-11-27T13:47:41.465Z,17.812
2022-11-27T13:51:21.730Z,18.0
2022-11-27T13:55:06.845Z,18.187
2022-11-27T13:58:47.127Z,18.25
2022-11-27T14:03:07.652Z,18.125
2022-11-27T14:06:48.213Z,18.0
2022-11-27T14:10:29.342Z,17.875
2022-11-27T14:14:16.179Z,17.875
2022-11-27T14:17:57.079Z,18.125
2022-11-27T14:21:37.261Z,18.25
2022-11-27T14:25:50.185Z,18.25
2022-11-27T14:29:30.543Z,18.187
2022-11-27T14:33:11.575Z,18.062
2022-11-27T14:37:14.640Z,17.937
2022-11-27T14:40:55.311Z,17.812
2022-11-27T14:44:35.356Z,17.875
2022-11-27T14:48:16.217Z,18.062
2022-11-27T14:51:56.645Z,18.25
2022-11-27T14:55:36.959Z,18.25
2022-11-27T14:59:16.981Z,18.25
2022-11-27T15:03:13.630Z,18.187
2022-11-27T15:06:53.973Z,18.062
2022-11-27T15:11:53.940Z,17.937
2022-11-27T15:15:35.180Z,17.812
2022-11-27T15:19:16.140Z,17.937
2022-11-27T15:22:56.281Z,18.125
2022-11-27T15:26:50.137Z,18.25
2022-11-27T15:30:31.247Z,18.312
2022-11-27T15:34:15.409Z,18.25
2022-11-27T15:37:55.773Z,18.187
2022-11-27T15:41:40.862Z,18.062
2022-11-27T15:45:24.034Z,17.875
2022-11-27T15:49:04.787Z,17.75
2022-11-27T15:52:45.234Z,17.875
2022-11-27T15:56:25.724Z,18.062
2022-11-27T16:03:07.553Z,18.312
2022-11-27T16:06:47.799Z,18.312
2022-11-27T16:10:32.874Z,18.187
2022-11-27T16:14:13.596Z,18.062
2022-11-27T16:18:00.079Z,17.937
2022-11-27T16:21:40.147Z,17.937
2022-11-27T16:25:20.846Z,17.937
2022-11-27T16:29:00.769Z,18.062
2022-11-27T16:32:41.924Z,18.187
2022-11-27T16:36:22.584Z,18.187
2022-11-27T16:40:07.346Z,17.875
2022-11-27T16:43:47.455Z,17.875
2022-11-27T16:47:33.622Z,18.0
2022-11-27T16:51:14.281Z,18.125
2022-11-27T16:54:54.691Z,18.187
2022-11-27T16:58:34.789Z,18.125
2022-11-27T17:03:08.617Z,18.0
2022-11-27T17:08:40.977Z,17.875
2022-11-27T17:12:21.317Z,17.937
2022-11-27T17:16:07.022Z,18.062
2022-11-27T17:19:47.742Z,18.125
2022-11-27T17:23:27.935Z,18.125
2022-11-27T17:27:09.972Z,18.0
2022-11-27T17:30:50.056Z,17.937
2022-11-27T17:34:30.964Z,17.937
2022-11-27T17:38:17.467Z,18.0
2022-11-27T17:41:57.592Z,18.125
2022-11-27T17:45:43.539Z,18.187
2022-11-27T17:49:23.924Z,18.125
2022-11-27T17:53:03.966Z,18.062
2022-11-27T17:56:44.115Z,18.0
2022-11-27T18:03:07.750Z,17.875
2022-11-27T18:06:48.222Z,18.0
2022-11-27T18:10:29.404Z,18.125
2022-11-27T18:14:09.593Z,18.25
2022-11-27T18:17:56.083Z,18.187
2022-11-27T18:21:42.972Z,18.25
2022-11-27T18:26:09.639Z,18.125
2022-11-27T18:30:09.514Z,17.937
2022-11-27T18:33:50.651Z,17.937
2022-11-27T18:37:30.845Z,18.0
2022-11-27T18:41:11.438Z,18.187
2022-11-27T18:44:52.368Z,18.187
2022-11-27T18:48:33.344Z,18.25
2022-11-27T18:52:20.828Z,18.187
2022-11-27T18:56:01.121Z,18.125
2022-11-27T18:59:41.409Z,18.062
2022-11-27T19:03:13.740Z,17.937
2022-11-27T19:06:53.971Z,17.875
2022-11-27T19:10:34.942Z,18.0
2022-11-27T19:14:15.132Z,18.125
2022-11-27T19:18:02.611Z,18.25
2022-11-27T19:22:24.414Z,18.187
2022-11-27T19:26:10.886Z,18.062
2022-11-27T19:29:50.913Z,18.0
2022-11-27T19:33:31.859Z,17.875
2022-11-27T19:37:12.862Z,17.937
2022-11-27T19:41:09.025Z,18.062
2022-11-27T19:44:53.064Z,18.25
2022-11-27T19:48:33.882Z,18.375
2022-11-27T19:52:14.013Z,18.375
2022-11-27T19:56:01.516Z,18.312
2022-11-27T19:59:46.632Z,18.25
2022-11-27T20:03:07.617Z,18.125
2022-11-27T20:06:48.463Z,18.062
2022-11-27T20:10:29.242Z,17.937
2022-11-27T20:14:16.985Z,17.875
2022-11-27T20:17:57.989Z,18.0
2022-11-27T20:21:38.225Z,18.187
2022-11-27T20:25:57.116Z,18.25
2022-11-27T20:29:37.578Z,18.25
2022-11-27T20:33:25.117Z,18.187
2022-11-27T20:37:05.229Z,18.062
2022-11-27T20:40:51.225Z,18.0
2022-11-27T20:44:31.292Z,17.937
2022-11-27T20:48:15.479Z,18.0
2022-11-27T20:51:55.334Z,18.187
2022-11-27T20:55:35.483Z,18.25
2022-11-27T20:59:21.058Z,18.25
2022-11-27T21:03:06.972Z,18.187
2022-11-27T21:06:47.284Z,18.125
2022-11-27T21:10:28.624Z,17.937
2022-11-27T21:14:08.735Z,17.875
2022-11-27T21:17:53.775Z,18.0
2022-11-27T21:21:34.369Z,18.187
2022-11-27T21:25:14.533Z,18.25
2022-11-27T21:29:00.575Z,18.25
2022-11-27T21:32:41.164Z,18.187
2022-11-27T21:36:27.634Z,18.062
2022-11-27T21:40:07.774Z,18.0
2022-11-27T21:43:47.949Z,17.875
2022-11-27T21:47:29.268Z,18.0
2022-11-27T21:51:09.272Z,18.187
2022-11-27T21:54:49.823Z,18.25
2022-11-27T21:58:29.949Z,18.25
2022-11-27T22:03:07.340Z,18.187
2022-11-27T22:06:47.421Z,18.062
2022-11-27T22:10:28.266Z,17.937
2022-11-27T22:14:08.526Z,17.812
2022-11-27T22:17:49.742Z,17.687
2022-11-27T22:21:29.586Z,17.562
2022-11-27T22:25:10.398Z,17.5
2022-11-27T22:28:50.608Z,17.375
2022-11-27T22:32:31.579Z,17.312
2022-11-27T22:36:12.190Z,17.312
2022-11-27T22:39:52.133Z,17.25
2022-11-27T22:43:32.682Z,17.187
2022-11-27T22:47:13.684Z,17.125
2022-11-27T22:50:53.638Z,17.125
2022-11-27T22:54:38.607Z,17.062
2022-11-27T22:58:19.278Z,17.062
2022-11-27T23:03:07.688Z,16.937
2022-11-27T23:06:48.797Z,16.937
2022-11-27T23:10:29.529Z,16.875
2022-11-27T23:14:15.939Z,16.875
2022-11-27T23:17:56.807Z,16.812
2022-11-27T23:21:36.903Z,16.875
2022-11-27T23:25:17.387Z,16.812
2022-11-27T23:29:03.536Z,16.75
2022-11-27T23:33:16.677Z,16.75
2022-11-27T23:36:56.870Z,16.687
2022-11-27T23:40:37.156Z,16.687
2022-11-27T23:44:17.289Z,16.687
2022-11-27T23:47:58.083Z,16.687
2022-11-27T23:51:38.175Z,16.687
2022-11-27T23:55:18.483Z,16.687
2022-11-27T23:59:04.367Z,16.625
